sensor_id;sensor_type;location;lat;lon;timestamp;temperature;humidity
21722;DHT22;11023;48.274;7.794;2022-11-12T00:00:24;8.70;99.90
21722;DHT22;11023;48.274;7.794;2022-11-12T00:02:50;8.70;99.90
21722;DHT22;11023;48.274;7.794;2022-11-12T00:05:15;8.60;99.90
21722;DHT22;11023;48.274;7.794;2022-11-12T00:07:41;8.60;99.90
21722;DHT22;11023;48.274;7.794;2022-11-12T00:10:17;8.60;99.90
21722;DHT22;11023;48.274;7.794;2022-11-12T00:12:43;8.60;99.90
21722;DHT22;11023;48.274;7.794;2022-11-12T00:15:11;8.50;99.90
21722;DHT22;11023;48.274;7.794;2022-11-12T00:17:37;8.50;99.90
21722;DHT22;11023;48.274;7.794;2022-11-12T00:20:04;8.50;99.90
21722;DHT22;11023;48.274;7.794;2022-11-12T00:22:33;8.50;99.90
21722;DHT22;11023;48.274;7.794;2022-11-12T00:24:59;8.40;99.90
21722;DHT22;11023;48.274;7.794;2022-11-12T00:27:24;8.50;99.90
21722;DHT22;11023;48.274;7.794;2022-11-12T00:29:53;8.40;99.90
21722;DHT22;11023;48.274;7.794;2022-11-12T00:32:18;8.40;99.90
21722;DHT22;11023;48.274;7.794;2022-11-12T00:34:52;8.40;99.90
21722;DHT22;11023;48.274;7.794;2022-11-12T00:37:21;8.40;99.90
21722;DHT22;11023;48.274;7.794;2022-11-12T00:39:48;8.40;99.90
21722;DHT22;11023;48.274;7.794;2022-11-12T00:42:16;8.40;99.90
21722;DHT22;11023;48.274;7.794;2022-11-12T00:44:43;8.40;99.90
21722;DHT22;11023;48.274;7.794;2022-11-12T00:47:09;8.30;99.90
21722;DHT22;11023;48.274;7.794;2022-11-12T00:49:34;8.30;99.90
21722;DHT22;11023;48.274;7.794;2022-11-12T00:52:00;8.30;99.90
21722;DHT22;11023;48.274;7.794;2022-11-12T00:54:26;8.30;99.90
21722;DHT22;11023;48.274;7.794;2022-11-12T00:56:52;8.30;99.90
21722;DHT22;11023;48.274;7.794;2022-11-12T00:59:18;8.30;99.90
21722;DHT22;11023;48.274;7.794;2022-11-12T01:01:47;8.30;99.90
21722;DHT22;11023;48.274;7.794;2022-11-12T01:04:13;8.30;99.90
21722;DHT22;11023;48.274;7.794;2022-11-12T01:06:41;8.30;99.90
21722;DHT22;11023;48.274;7.794;2022-11-12T01:09:08;8.30;99.90
21722;DHT22;11023;48.274;7.794;2022-11-12T01:11:34;8.30;99.90
21722;DHT22;11023;48.274;7.794;2022-11-12T01:14:06;8.30;99.90
21722;DHT22;11023;48.274;7.794;2022-11-12T01:16:37;8.20;99.90
21722;DHT22;11023;48.274;7.794;2022-11-12T01:19:07;8.20;99.90
21722;DHT22;11023;48.274;7.794;2022-11-12T01:21:38;8.20;99.90
21722;DHT22;11023;48.274;7.794;2022-11-12T01:24:05;8.20;99.90
21722;DHT22;11023;48.274;7.794;2022-11-12T01:26:32;8.10;99.90
21722;DHT22;11023;48.274;7.794;2022-11-12T01:28:58;8.10;99.90
21722;DHT22;11023;48.274;7.794;2022-11-12T01:31:29;8.10;99.90
21722;DHT22;11023;48.274;7.794;2022-11-12T01:33:59;8.10;99.90
21722;DHT22;11023;48.274;7.794;2022-11-12T01:36:36;8.00;99.90
21722;DHT22;11023;48.274;7.794;2022-11-12T01:39:04;8.10;99.90
21722;DHT22;11023;48.274;7.794;2022-11-12T01:41:35;8.00;99.90
21722;DHT22;11023;48.274;7.794;2022-11-12T01:44:20;8.10;99.90
21722;DHT22;11023;48.274;7.794;2022-11-12T01:47:18;8.10;99.90
21722;DHT22;11023;48.274;7.794;2022-11-12T01:50:28;8.10;99.90
21722;DHT22;11023;48.274;7.794;2022-11-12T01:52:58;8.10;99.90
21722;DHT22;11023;48.274;7.794;2022-11-12T01:55:28;8.10;99.90
21722;DHT22;11023;48.274;7.794;2022-11-12T01:58:03;8.10;99.90
21722;DHT22;11023;48.274;7.794;2022-11-12T02:00:30;8.10;99.90
21722;DHT22;11023;48.274;7.794;2022-11-12T02:02:58;8.10;99.90
21722;DHT22;11023;48.274;7.794;2022-11-12T02:05:27;8.00;99.90
21722;DHT22;11023;48.274;7.794;2022-11-12T02:07:54;8.00;99.90
21722;DHT22;11023;48.274;7.794;2022-11-12T02:10:21;8.00;99.90
21722;DHT22;11023;48.274;7.794;2022-11-12T02:12:49;8.00;99.90
21722;DHT22;11023;48.274;7.794;2022-11-12T02:15:36;7.90;99.90
21722;DHT22;11023;48.274;7.794;2022-11-12T02:18:02;7.80;99.90
21722;DHT22;11023;48.274;7.794;2022-11-12T02:20:36;7.80;99.90
21722;DHT22;11023;48.274;7.794;2022-11-12T02:23:03;7.90;99.90
21722;DHT22;11023;48.274;7.794;2022-11-12T02:25:29;7.80;99.90
21722;DHT22;11023;48.274;7.794;2022-11-12T02:27:55;7.80;99.90
21722;DHT22;11023;48.274;7.794;2022-11-12T02:30:40;7.80;99.90
21722;DHT22;11023;48.274;7.794;2022-11-12T02:33:06;7.80;99.90
21722;DHT22;11023;48.274;7.794;2022-11-12T02:35:32;7.80;99.90
21722;DHT22;11023;48.274;7.794;2022-11-12T02:37:58;7.80;99.90
21722;DHT22;11023;48.274;7.794;2022-11-12T02:40:24;7.80;99.90
21722;DHT22;11023;48.274;7.794;2022-11-12T02:42:50;7.80;99.90
21722;DHT22;11023;48.274;7.794;2022-11-12T02:45:16;7.70;99.90
21722;DHT22;11023;48.274;7.794;2022-11-12T02:47:43;7.70;99.90
21722;DHT22;11023;48.274;7.794;2022-11-12T02:50:09;7.70;99.90
21722;DHT22;11023;48.274;7.794;2022-11-12T02:52:35;7.70;99.90
21722;DHT22;11023;48.274;7.794;2022-11-12T02:55:01;7.60;99.90
21722;DHT22;11023;48.274;7.794;2022-11-12T02:57:27;7.60;99.90
21722;DHT22;11023;48.274;7.794;2022-11-12T02:59:54;7.60;99.90
21722;DHT22;11023;48.274;7.794;2022-11-12T03:02:20;7.70;99.90
21722;DHT22;11023;48.274;7.794;2022-11-12T03:04:46;7.70;99.90
21722;DHT22;11023;48.274;7.794;2022-11-12T03:07:11;7.60;99.90
21722;DHT22;11023;48.274;7.794;2022-11-12T03:09:37;7.60;99.90
21722;DHT22;11023;48.274;7.794;2022-11-12T03:12:03;7.60;99.90
21722;DHT22;11023;48.274;7.794;2022-11-12T03:14:28;7.60;99.90
21722;DHT22;11023;48.274;7.794;2022-11-12T03:16:57;7.60;99.90
21722;DHT22;11023;48.274;7.794;2022-11-12T03:19:23;7.60;99.90
21722;DHT22;11023;48.274;7.794;2022-11-12T03:21:49;7.60;99.90
21722;DHT22;11023;48.274;7.794;2022-11-12T03:24:15;7.60;99.90
21722;DHT22;11023;48.274;7.794;2022-11-12T03:26:41;7.60;99.90
21722;DHT22;11023;48.274;7.794;2022-11-12T03:29:06;7.60;99.90
21722;DHT22;11023;48.274;7.794;2022-11-12T03:31:34;7.60;99.90
21722;DHT22;11023;48.274;7.794;2022-11-12T03:34:00;7.60;99.90
21722;DHT22;11023;48.274;7.794;2022-11-12T03:36:26;7.60;99.90
21722;DHT22;11023;48.274;7.794;2022-11-12T03:38:52;7.60;99.90
21722;DHT22;11023;48.274;7.794;2022-11-12T03:41:18;7.60;99.90
21722;DHT22;11023;48.274;7.794;2022-11-12T03:43:44;7.50;99.90
21722;DHT22;11023;48.274;7.794;2022-11-12T03:46:09;7.50;99.90
21722;DHT22;11023;48.274;7.794;2022-11-12T03:48:35;7.40;99.90
21722;DHT22;11023;48.274;7.794;2022-11-12T03:51:01;7.50;99.90
21722;DHT22;11023;48.274;7.794;2022-11-12T03:53:27;7.40;99.90
21722;DHT22;11023;48.274;7.794;2022-11-12T03:55:52;7.40;99.90
21722;DHT22;11023;48.274;7.794;2022-11-12T03:58:18;7.40;99.90
21722;DHT22;11023;48.274;7.794;2022-11-12T04:00:44;7.40;99.90
21722;DHT22;11023;48.274;7.794;2022-11-12T04:03:09;7.30;99.90
21722;DHT22;11023;48.274;7.794;2022-11-12T04:05:35;7.40;99.90
21722;DHT22;11023;48.274;7.794;2022-11-12T04:08:23;7.40;99.90
21722;DHT22;11023;48.274;7.794;2022-11-12T04:11:12;7.40;99.90
21722;DHT22;11023;48.274;7.794;2022-11-12T04:13:41;7.40;99.90
21722;DHT22;11023;48.274;7.794;2022-11-12T04:16:13;7.50;99.90
21722;DHT22;11023;48.274;7.794;2022-11-12T04:18:59;7.50;99.90
21722;DHT22;11023;48.274;7.794;2022-11-12T04:24:21;7.50;99.90
21722;DHT22;11023;48.274;7.794;2022-11-12T04:27:06;7.50;99.90
21722;DHT22;11023;48.274;7.794;2022-11-12T04:29:32;7.50;99.90
21722;DHT22;11023;48.274;7.794;2022-11-12T04:32:16;7.50;99.90
21722;DHT22;11023;48.274;7.794;2022-11-12T04:34:43;7.50;99.90
21722;DHT22;11023;48.274;7.794;2022-11-12T04:37:08;7.50;99.90
21722;DHT22;11023;48.274;7.794;2022-11-12T04:39:35;7.40;99.90
21722;DHT22;11023;48.274;7.794;2022-11-12T04:42:01;7.40;99.90
21722;DHT22;11023;48.274;7.794;2022-11-12T04:44:45;7.40;99.90
21722;DHT22;11023;48.274;7.794;2022-11-12T04:47:33;7.40;99.90
21722;DHT22;11023;48.274;7.794;2022-11-12T04:50:00;7.40;99.90
21722;DHT22;11023;48.274;7.794;2022-11-12T04:52:27;7.40;99.90
21722;DHT22;11023;48.274;7.794;2022-11-12T04:54:53;7.40;99.90
21722;DHT22;11023;48.274;7.794;2022-11-12T04:57:19;7.40;99.90
21722;DHT22;11023;48.274;7.794;2022-11-12T04:59:46;7.50;99.90
21722;DHT22;11023;48.274;7.794;2022-11-12T05:02:11;7.50;99.90
21722;DHT22;11023;48.274;7.794;2022-11-12T05:04:37;7.50;99.90
21722;DHT22;11023;48.274;7.794;2022-11-12T05:07:03;7.50;99.90
21722;DHT22;11023;48.274;7.794;2022-11-12T05:09:29;7.50;99.90
21722;DHT22;11023;48.274;7.794;2022-11-12T05:11:55;7.50;99.90
21722;DHT22;11023;48.274;7.794;2022-11-12T05:14:22;7.50;99.90
21722;DHT22;11023;48.274;7.794;2022-11-12T05:16:48;7.50;99.90
21722;DHT22;11023;48.274;7.794;2022-11-12T05:19:14;7.50;99.90
21722;DHT22;11023;48.274;7.794;2022-11-12T05:21:39;7.40;99.90
21722;DHT22;11023;48.274;7.794;2022-11-12T05:24:24;7.50;99.90
21722;DHT22;11023;48.274;7.794;2022-11-12T05:26:50;7.50;99.90
21722;DHT22;11023;48.274;7.794;2022-11-12T05:29:16;7.50;99.90
21722;DHT22;11023;48.274;7.794;2022-11-12T05:31:42;7.50;99.90
21722;DHT22;11023;48.274;7.794;2022-11-12T05:34:08;7.50;99.90
21722;DHT22;11023;48.274;7.794;2022-11-12T05:36:34;7.50;99.90
21722;DHT22;11023;48.274;7.794;2022-11-12T05:38:59;7.50;99.90
21722;DHT22;11023;48.274;7.794;2022-11-12T05:41:25;7.50;99.90
21722;DHT22;11023;48.274;7.794;2022-11-12T05:43:51;7.50;99.90
21722;DHT22;11023;48.274;7.794;2022-11-12T05:46:17;7.50;99.90
21722;DHT22;11023;48.274;7.794;2022-11-12T05:48:42;7.50;99.90
21722;DHT22;11023;48.274;7.794;2022-11-12T05:51:08;7.50;99.90
21722;DHT22;11023;48.274;7.794;2022-11-12T05:53:34;7.60;99.90
21722;DHT22;11023;48.274;7.794;2022-11-12T05:56:03;7.50;99.90
21722;DHT22;11023;48.274;7.794;2022-11-12T05:58:29;7.60;99.90
21722;DHT22;11023;48.274;7.794;2022-11-12T06:00:55;7.60;99.90
21722;DHT22;11023;48.274;7.794;2022-11-12T06:03:21;7.60;99.90
21722;DHT22;11023;48.274;7.794;2022-11-12T06:05:47;7.60;99.90
21722;DHT22;11023;48.274;7.794;2022-11-12T06:08:13;7.50;99.90
21722;DHT22;11023;48.274;7.794;2022-11-12T06:10:38;7.50;99.90
21722;DHT22;11023;48.274;7.794;2022-11-12T06:13:04;7.50;99.90
21722;DHT22;11023;48.274;7.794;2022-11-12T06:15:30;7.50;99.90
21722;DHT22;11023;48.274;7.794;2022-11-12T06:17:56;7.60;99.90
21722;DHT22;11023;48.274;7.794;2022-11-12T06:20:22;7.60;99.90
21722;DHT22;11023;48.274;7.794;2022-11-12T06:22:49;7.60;99.90
21722;DHT22;11023;48.274;7.794;2022-11-12T06:25:16;7.60;99.90
21722;DHT22;11023;48.274;7.794;2022-11-12T06:27:43;7.60;99.90
21722;DHT22;11023;48.274;7.794;2022-11-12T06:30:09;7.60;99.90
21722;DHT22;11023;48.274;7.794;2022-11-12T06:32:35;7.60;99.90
21722;DHT22;11023;48.274;7.794;2022-11-12T06:35:01;7.60;99.90
21722;DHT22;11023;48.274;7.794;2022-11-12T06:37:27;7.60;99.90
21722;DHT22;11023;48.274;7.794;2022-11-12T06:39:54;7.60;99.90
21722;DHT22;11023;48.274;7.794;2022-11-12T06:42:19;7.60;99.90
21722;DHT22;11023;48.274;7.794;2022-11-12T06:44:45;7.60;99.90
21722;DHT22;11023;48.274;7.794;2022-11-12T06:47:12;7.60;99.90
21722;DHT22;11023;48.274;7.794;2022-11-12T06:49:37;7.70;99.90
21722;DHT22;11023;48.274;7.794;2022-11-12T06:52:03;7.70;99.90
21722;DHT22;11023;48.274;7.794;2022-11-12T06:54:29;7.70;99.90
21722;DHT22;11023;48.274;7.794;2022-11-12T06:56:56;7.70;99.90
21722;DHT22;11023;48.274;7.794;2022-11-12T06:59:22;7.80;99.90
21722;DHT22;11023;48.274;7.794;2022-11-12T07:01:47;7.80;99.90
21722;DHT22;11023;48.274;7.794;2022-11-12T07:04:13;7.80;99.90
21722;DHT22;11023;48.274;7.794;2022-11-12T07:06:40;7.80;99.90
21722;DHT22;11023;48.274;7.794;2022-11-12T07:09:06;7.80;99.90
21722;DHT22;11023;48.274;7.794;2022-11-12T07:11:31;7.70;99.90
21722;DHT22;11023;48.274;7.794;2022-11-12T07:13:57;7.70;99.90
21722;DHT22;11023;48.274;7.794;2022-11-12T07:16:23;7.70;99.90
21722;DHT22;11023;48.274;7.794;2022-11-12T07:18:49;7.70;99.90
21722;DHT22;11023;48.274;7.794;2022-11-12T07:21:17;7.70;99.90
21722;DHT22;11023;48.274;7.794;2022-11-12T07:23:44;7.70;99.90
21722;DHT22;11023;48.274;7.794;2022-11-12T07:26:16;7.70;99.90
21722;DHT22;11023;48.274;7.794;2022-11-12T07:28:43;7.70;99.90
21722;DHT22;11023;48.274;7.794;2022-11-12T07:31:11;7.80;99.90
21722;DHT22;11023;48.274;7.794;2022-11-12T07:33:37;7.80;99.90
21722;DHT22;11023;48.274;7.794;2022-11-12T07:36:04;7.80;99.90
21722;DHT22;11023;48.274;7.794;2022-11-12T07:38:35;7.80;99.90
21722;DHT22;11023;48.274;7.794;2022-11-12T07:43:32;7.80;99.90
21722;DHT22;11023;48.274;7.794;2022-11-12T07:46:10;7.70;99.90
21722;DHT22;11023;48.274;7.794;2022-11-12T07:48:37;7.80;99.90
21722;DHT22;11023;48.274;7.794;2022-11-12T07:51:25;7.70;99.90
21722;DHT22;11023;48.274;7.794;2022-11-12T07:53:53;7.70;99.90
21722;DHT22;11023;48.274;7.794;2022-11-12T07:56:21;7.60;99.90
21722;DHT22;11023;48.274;7.794;2022-11-12T07:58:47;7.60;99.90
21722;DHT22;11023;48.274;7.794;2022-11-12T08:01:36;7.60;99.90
21722;DHT22;11023;48.274;7.794;2022-11-12T08:04:05;7.60;99.90
21722;DHT22;11023;48.274;7.794;2022-11-12T08:06:32;7.50;99.90
21722;DHT22;11023;48.274;7.794;2022-11-12T08:09:00;7.50;99.90
21722;DHT22;11023;48.274;7.794;2022-11-12T08:11:26;7.50;99.90
21722;DHT22;11023;48.274;7.794;2022-11-12T08:13:51;7.50;99.90
21722;DHT22;11023;48.274;7.794;2022-11-12T08:16:19;7.60;99.90
21722;DHT22;11023;48.274;7.794;2022-11-12T08:18:45;7.60;99.90
21722;DHT22;11023;48.274;7.794;2022-11-12T08:21:13;7.60;99.90
21722;DHT22;11023;48.274;7.794;2022-11-12T08:23:39;7.60;99.90
21722;DHT22;11023;48.274;7.794;2022-11-12T08:26:06;7.60;99.90
21722;DHT22;11023;48.274;7.794;2022-11-12T08:28:35;7.60;99.90
21722;DHT22;11023;48.274;7.794;2022-11-12T08:31:06;7.70;99.90
21722;DHT22;11023;48.274;7.794;2022-11-12T08:33:33;7.60;99.90
21722;DHT22;11023;48.274;7.794;2022-11-12T08:36:02;7.60;99.90
21722;DHT22;11023;48.274;7.794;2022-11-12T08:38:28;7.70;99.90
21722;DHT22;11023;48.274;7.794;2022-11-12T08:40:54;7.70;99.90
21722;DHT22;11023;48.274;7.794;2022-11-12T08:43:20;7.70;99.90
21722;DHT22;11023;48.274;7.794;2022-11-12T08:45:46;7.60;99.90
21722;DHT22;11023;48.274;7.794;2022-11-12T08:48:14;7.70;99.90
21722;DHT22;11023;48.274;7.794;2022-11-12T08:50:40;7.80;99.90
21722;DHT22;11023;48.274;7.794;2022-11-12T08:53:12;7.70;99.90
21722;DHT22;11023;48.274;7.794;2022-11-12T08:55:39;7.70;99.90
21722;DHT22;11023;48.274;7.794;2022-11-12T08:58:05;7.60;99.90
21722;DHT22;11023;48.274;7.794;2022-11-12T09:00:35;7.70;99.90
21722;DHT22;11023;48.274;7.794;2022-11-12T09:03:03;7.70;99.90
21722;DHT22;11023;48.274;7.794;2022-11-12T09:05:30;7.80;99.90
21722;DHT22;11023;48.274;7.794;2022-11-12T09:08:06;7.80;99.90
21722;DHT22;11023;48.274;7.794;2022-11-12T09:10:32;7.90;99.90
21722;DHT22;11023;48.274;7.794;2022-11-12T09:12:59;8.00;99.90
21722;DHT22;11023;48.274;7.794;2022-11-12T09:15:25;8.10;99.90
21722;DHT22;11023;48.274;7.794;2022-11-12T09:17:58;8.10;99.90
21722;DHT22;11023;48.274;7.794;2022-11-12T09:20:25;8.10;99.90
21722;DHT22;11023;48.274;7.794;2022-11-12T09:22:51;8.00;99.90
21722;DHT22;11023;48.274;7.794;2022-11-12T09:25:18;8.10;99.90
21722;DHT22;11023;48.274;7.794;2022-11-12T09:27:44;8.10;99.90
21722;DHT22;11023;48.274;7.794;2022-11-12T09:30:10;8.10;99.90
21722;DHT22;11023;48.274;7.794;2022-11-12T09:32:36;8.20;99.90
21722;DHT22;11023;48.274;7.794;2022-11-12T09:35:02;8.10;99.90
21722;DHT22;11023;48.274;7.794;2022-11-12T09:37:27;8.10;99.90
21722;DHT22;11023;48.274;7.794;2022-11-12T09:39:54;8.20;99.90
21722;DHT22;11023;48.274;7.794;2022-11-12T09:42:21;8.20;99.90
21722;DHT22;11023;48.274;7.794;2022-11-12T09:45:21;8.30;99.90
21722;DHT22;11023;48.274;7.794;2022-11-12T09:47:55;8.30;99.90
21722;DHT22;11023;48.274;7.794;2022-11-12T09:50:28;8.30;99.90
21722;DHT22;11023;48.274;7.794;2022-11-12T09:53:15;8.40;99.90
21722;DHT22;11023;48.274;7.794;2022-11-12T09:55:44;8.50;99.90
21722;DHT22;11023;48.274;7.794;2022-11-12T09:58:13;8.50;99.90
21722;DHT22;11023;48.274;7.794;2022-11-12T10:00:53;8.50;99.90
21722;DHT22;11023;48.274;7.794;2022-11-12T10:06:00;8.60;99.90
21722;DHT22;11023;48.274;7.794;2022-11-12T10:09:03;8.50;99.90
21722;DHT22;11023;48.274;7.794;2022-11-12T10:14:44;8.20;99.90
21722;DHT22;11023;48.274;7.794;2022-11-12T10:17:35;8.20;99.90
21722;DHT22;11023;48.274;7.794;2022-11-12T10:23:04;8.30;99.90
21722;DHT22;11023;48.274;7.794;2022-11-12T10:25:31;8.30;99.90
21722;DHT22;11023;48.274;7.794;2022-11-12T10:27:57;8.50;99.90
21722;DHT22;11023;48.274;7.794;2022-11-12T10:30:24;8.50;99.90
21722;DHT22;11023;48.274;7.794;2022-11-12T10:32:51;8.50;99.90
21722;DHT22;11023;48.274;7.794;2022-11-12T10:35:20;8.50;99.90
21722;DHT22;11023;48.274;7.794;2022-11-12T10:45:45;8.50;99.90
21722;DHT22;11023;48.274;7.794;2022-11-12T10:48:31;8.50;99.90
21722;DHT22;11023;48.274;7.794;2022-11-12T10:50:58;8.50;99.90
21722;DHT22;11023;48.274;7.794;2022-11-12T10:53:36;8.60;99.90
21722;DHT22;11023;48.274;7.794;2022-11-12T10:56:29;8.60;99.90
21722;DHT22;11023;48.274;7.794;2022-11-12T11:01:42;8.70;99.90
21722;DHT22;11023;48.274;7.794;2022-11-12T11:04:37;8.70;99.90
21722;DHT22;11023;48.274;7.794;2022-11-12T11:07:25;8.70;99.90
21722;DHT22;11023;48.274;7.794;2022-11-12T11:21:55;8.80;99.90
21722;DHT22;11023;48.274;7.794;2022-11-12T11:24:59;8.80;99.90
21722;DHT22;11023;48.274;7.794;2022-11-12T11:28:18;8.90;99.90
21722;DHT22;11023;48.274;7.794;2022-11-12T12:07:04;9.20;99.90
21722;DHT22;11023;48.274;7.794;2022-11-12T12:22:00;9.20;99.90
21722;DHT22;11023;48.274;7.794;2022-11-12T12:24:46;9.30;99.90
21722;DHT22;11023;48.274;7.794;2022-11-12T12:27:21;9.20;99.90
21722;DHT22;11023;48.274;7.794;2022-11-12T12:29:55;9.20;99.90
21722;DHT22;11023;48.274;7.794;2022-11-12T12:32:32;9.20;99.90
21722;DHT22;11023;48.274;7.794;2022-11-12T12:35:19;9.20;99.90
21722;DHT22;11023;48.274;7.794;2022-11-12T12:38:09;9.20;99.90
21722;DHT22;11023;48.274;7.794;2022-11-12T12:41:13;9.20;99.90
21722;DHT22;11023;48.274;7.794;2022-11-12T12:43:48;9.10;99.90
21722;DHT22;11023;48.274;7.794;2022-11-12T12:46:18;9.10;99.90
21722;DHT22;11023;48.274;7.794;2022-11-12T12:48:45;9.00;99.90
21722;DHT22;11023;48.274;7.794;2022-11-12T12:51:11;9.10;99.90
21722;DHT22;11023;48.274;7.794;2022-11-12T12:53:37;9.10;99.90
21722;DHT22;11023;48.274;7.794;2022-11-12T12:58:43;9.10;99.90
21722;DHT22;11023;48.274;7.794;2022-11-12T13:03:57;8.90;99.90
21722;DHT22;11023;48.274;7.794;2022-11-12T13:09:19;8.90;99.90
21722;DHT22;11023;48.274;7.794;2022-11-12T13:11:50;8.90;99.90
21722;DHT22;11023;48.274;7.794;2022-11-12T13:45:52;9.00;99.90
21722;DHT22;11023;48.274;7.794;2022-11-12T13:51:05;8.90;99.90
21722;DHT22;11023;48.274;7.794;2022-11-12T13:53:32;8.80;99.90
21722;DHT22;11023;48.274;7.794;2022-11-12T13:55:58;8.90;99.90
21722;DHT22;11023;48.274;7.794;2022-11-12T13:58:32;8.80;99.90
21722;DHT22;11023;48.274;7.794;2022-11-12T14:01:03;8.70;99.90
21722;DHT22;11023;48.274;7.794;2022-11-12T14:03:50;8.70;99.90
21722;DHT22;11023;48.274;7.794;2022-11-12T14:06:30;8.60;99.90
21722;DHT22;11023;48.274;7.794;2022-11-12T14:23:19;8.60;99.90
21722;DHT22;11023;48.274;7.794;2022-11-12T14:25:47;8.60;99.90
21722;DHT22;11023;48.274;7.794;2022-11-12T14:30:58;8.50;99.90
21722;DHT22;11023;48.274;7.794;2022-11-12T14:33:25;8.60;99.90
21722;DHT22;11023;48.274;7.794;2022-11-12T14:35:53;8.50;99.90
21722;DHT22;11023;48.274;7.794;2022-11-12T14:38:30;8.40;99.90
21722;DHT22;11023;48.274;7.794;2022-11-12T14:41:06;8.50;99.90
21722;DHT22;11023;48.274;7.794;2022-11-12T14:43:48;8.40;99.90
21722;DHT22;11023;48.274;7.794;2022-11-12T14:46:22;8.40;99.90
21722;DHT22;11023;48.274;7.794;2022-11-12T14:48:59;8.40;99.90
21722;DHT22;11023;48.274;7.794;2022-11-12T14:51:27;8.40;99.90
21722;DHT22;11023;48.274;7.794;2022-11-12T14:53:58;8.30;99.90
21722;DHT22;11023;48.274;7.794;2022-11-12T14:56:39;8.30;99.90
21722;DHT22;11023;48.274;7.794;2022-11-12T14:59:09;8.30;99.90
21722;DHT22;11023;48.274;7.794;2022-11-12T15:01:37;8.30;99.90
21722;DHT22;11023;48.274;7.794;2022-11-12T15:06:39;8.20;99.90
21722;DHT22;11023;48.274;7.794;2022-11-12T15:09:05;8.30;99.90
21722;DHT22;11023;48.274;7.794;2022-11-12T15:11:36;8.20;99.90
21722;DHT22;11023;48.274;7.794;2022-11-12T15:14:19;8.20;99.90
21722;DHT22;11023;48.274;7.794;2022-11-12T15:16:46;8.20;99.90
21722;DHT22;11023;48.274;7.794;2022-11-12T15:19:39;8.20;99.90
21722;DHT22;11023;48.274;7.794;2022-11-12T15:22:19;8.20;99.90
21722;DHT22;11023;48.274;7.794;2022-11-12T15:24:46;8.10;99.90
21722;DHT22;11023;48.274;7.794;2022-11-12T15:27:40;8.10;99.90
21722;DHT22;11023;48.274;7.794;2022-11-12T15:33:05;8.10;99.90
21722;DHT22;11023;48.274;7.794;2022-11-12T15:35:33;8.10;99.90
21722;DHT22;11023;48.274;7.794;2022-11-12T15:38:06;8.10;99.90
21722;DHT22;11023;48.274;7.794;2022-11-12T15:40:43;8.10;99.90
21722;DHT22;11023;48.274;7.794;2022-11-12T15:43:16;8.00;99.90
21722;DHT22;11023;48.274;7.794;2022-11-12T15:45:47;8.00;99.90
21722;DHT22;11023;48.274;7.794;2022-11-12T15:48:13;8.10;99.90
21722;DHT22;11023;48.274;7.794;2022-11-12T15:50:40;8.10;99.90
21722;DHT22;11023;48.274;7.794;2022-11-12T15:53:06;8.10;99.90
21722;DHT22;11023;48.274;7.794;2022-11-12T15:55:33;8.10;99.90
21722;DHT22;11023;48.274;7.794;2022-11-12T15:58:00;8.10;99.90
21722;DHT22;11023;48.274;7.794;2022-11-12T16:00:31;8.00;99.90
21722;DHT22;11023;48.274;7.794;2022-11-12T16:03:19;8.00;99.90
21722;DHT22;11023;48.274;7.794;2022-11-12T16:05:45;7.90;99.90
21722;DHT22;11023;48.274;7.794;2022-11-12T16:08:11;7.90;99.90
21722;DHT22;11023;48.274;7.794;2022-11-12T16:10:38;7.80;99.90
21722;DHT22;11023;48.274;7.794;2022-11-12T16:13:05;7.90;99.90
21722;DHT22;11023;48.274;7.794;2022-11-12T16:15:32;7.80;99.90
21722;DHT22;11023;48.274;7.794;2022-11-12T16:17:58;7.90;99.90
21722;DHT22;11023;48.274;7.794;2022-11-12T16:20:30;7.90;99.90
21722;DHT22;11023;48.274;7.794;2022-11-12T16:22:58;7.90;99.90
21722;DHT22;11023;48.274;7.794;2022-11-12T16:25:29;7.90;99.90
21722;DHT22;11023;48.274;7.794;2022-11-12T16:27:56;7.90;99.90
21722;DHT22;11023;48.274;7.794;2022-11-12T16:30:31;7.80;99.90
21722;DHT22;11023;48.274;7.794;2022-11-12T16:33:00;7.70;99.90
21722;DHT22;11023;48.274;7.794;2022-11-12T16:35:27;7.70;99.90
21722;DHT22;11023;48.274;7.794;2022-11-12T16:37:54;7.60;99.90
21722;DHT22;11023;48.274;7.794;2022-11-12T16:40:25;7.50;99.90
21722;DHT22;11023;48.274;7.794;2022-11-12T16:42:51;7.50;99.90
21722;DHT22;11023;48.274;7.794;2022-11-12T16:45:19;7.50;99.90
21722;DHT22;11023;48.274;7.794;2022-11-12T16:47:47;7.50;99.90
21722;DHT22;11023;48.274;7.794;2022-11-12T16:50:15;7.50;99.90
21722;DHT22;11023;48.274;7.794;2022-11-12T16:52:41;7.60;99.90
21722;DHT22;11023;48.274;7.794;2022-11-12T16:55:08;7.60;99.90
21722;DHT22;11023;48.274;7.794;2022-11-12T16:57:34;7.60;99.90
21722;DHT22;11023;48.274;7.794;2022-11-12T17:00:03;7.60;99.90
21722;DHT22;11023;48.274;7.794;2022-11-12T17:02:32;7.60;99.90
21722;DHT22;11023;48.274;7.794;2022-11-12T17:05:16;7.70;99.90
21722;DHT22;11023;48.274;7.794;2022-11-12T17:07:42;7.70;99.90
21722;DHT22;11023;48.274;7.794;2022-11-12T17:10:08;7.70;99.90
21722;DHT22;11023;48.274;7.794;2022-11-12T17:12:35;7.60;99.90
21722;DHT22;11023;48.274;7.794;2022-11-12T17:15:00;7.60;99.90
21722;DHT22;11023;48.274;7.794;2022-11-12T17:17:26;7.50;99.90
21722;DHT22;11023;48.274;7.794;2022-11-12T17:19:52;7.50;99.90
21722;DHT22;11023;48.274;7.794;2022-11-12T17:22:18;7.50;99.90
21722;DHT22;11023;48.274;7.794;2022-11-12T17:24:45;7.50;99.90
21722;DHT22;11023;48.274;7.794;2022-11-12T17:27:10;7.50;99.90
21722;DHT22;11023;48.274;7.794;2022-11-12T17:29:36;7.50;99.90
21722;DHT22;11023;48.274;7.794;2022-11-12T17:32:03;7.50;99.90
21722;DHT22;11023;48.274;7.794;2022-11-12T17:34:29;7.50;99.90
21722;DHT22;11023;48.274;7.794;2022-11-12T17:36:54;7.50;99.90
21722;DHT22;11023;48.274;7.794;2022-11-12T17:39:20;7.50;99.90
21722;DHT22;11023;48.274;7.794;2022-11-12T17:41:46;7.40;99.90
21722;DHT22;11023;48.274;7.794;2022-11-12T17:44:17;7.40;99.90
21722;DHT22;11023;48.274;7.794;2022-11-12T17:46:44;7.50;99.90
21722;DHT22;11023;48.274;7.794;2022-11-12T17:49:11;7.50;99.90
21722;DHT22;11023;48.274;7.794;2022-11-12T17:51:38;7.50;99.90
21722;DHT22;11023;48.274;7.794;2022-11-12T17:54:04;7.50;99.90
21722;DHT22;11023;48.274;7.794;2022-11-12T17:56:30;7.50;99.90
21722;DHT22;11023;48.274;7.794;2022-11-12T17:59:00;7.50;99.90
21722;DHT22;11023;48.274;7.794;2022-11-12T18:01:27;7.50;99.90
21722;DHT22;11023;48.274;7.794;2022-11-12T18:03:54;7.60;99.90
21722;DHT22;11023;48.274;7.794;2022-11-12T18:06:26;7.50;99.90
21722;DHT22;11023;48.274;7.794;2022-11-12T18:09:05;7.50;99.90
21722;DHT22;11023;48.274;7.794;2022-11-12T18:11:41;7.50;99.90
21722;DHT22;11023;48.274;7.794;2022-11-12T18:14:08;7.50;99.90
21722;DHT22;11023;48.274;7.794;2022-11-12T18:16:34;7.60;99.90
21722;DHT22;11023;48.274;7.794;2022-11-12T18:19:00;7.50;99.90
21722;DHT22;11023;48.274;7.794;2022-11-12T18:21:26;7.50;99.90
21722;DHT22;11023;48.274;7.794;2022-11-12T18:23:55;7.50;99.90
21722;DHT22;11023;48.274;7.794;2022-11-12T18:26:21;7.40;99.90
21722;DHT22;11023;48.274;7.794;2022-11-12T18:28:51;7.40;99.90
21722;DHT22;11023;48.274;7.794;2022-11-12T18:31:17;7.30;99.90